createdAt,value
2017-05-30T00:00:32.581Z,17.97
2017-05-30T00:03:01.505Z,16.42
2017-05-30T00:05:30.452Z,18.23
2017-05-30T00:07:59.407Z,17.48
2017-05-30T00:10:28.356Z,17.72
2017-05-30T00:12:57.289Z,17.22
2017-05-30T00:15:26.242Z,18.05
2017-05-30T00:17:55.174Z,18.15
2017-05-30T00:20:24.102Z,16.78
2017-05-30T00:22:53.065Z,17.12
2017-05-30T00:25:22.009Z,17.45
2017-05-30T00:27:50.961Z,16.50
2017-05-30T00:30:19.962Z,18.77
2017-05-30T00:32:48.905Z,15.88
2017-05-30T00:35:17.826Z,17.63
2017-05-30T00:37:46.800Z,17.92
2017-05-30T00:40:15.744Z,17.03
2017-05-30T00:42:44.685Z,17.15
2017-05-30T00:45:13.657Z,16.57
2017-05-30T00:47:42.605Z,17.07
2017-05-30T00:50:11.541Z,17.82
2017-05-30T00:52:40.523Z,17.58
2017-05-30T00:55:09.471Z,17.38
2017-05-30T00:57:38.401Z,17.85
2017-05-30T01:00:07.366Z,16.45
2017-05-30T01:02:36.312Z,16.58
2017-05-30T01:05:05.234Z,16.87
2017-05-30T01:07:34.199Z,16.08
2017-05-30T01:10:03.150Z,15.98
2017-05-30T01:12:32.099Z,16.52
2017-05-30T01:15:01.076Z,17.10
2017-05-30T01:17:30.010Z,17.55
2017-05-30T01:19:58.958Z,16.57
2017-05-30T01:22:27.914Z,17.72
2017-05-30T01:24:56.857Z,16.62
2017-05-30T01:27:25.785Z,16.73
2017-05-30T01:29:54.759Z,17.70
2017-05-30T01:32:23.687Z,16.93
2017-05-30T01:34:52.610Z,17.75
2017-05-30T01:37:21.581Z,16.72
2017-05-30T01:39:50.511Z,17.50
2017-05-30T01:42:19.454Z,18.43
2017-05-30T01:44:48.402Z,18.50
2017-05-30T01:47:17.354Z,18.43
2017-05-30T01:49:46.306Z,18.43
2017-05-30T01:52:15.272Z,19.30
2017-05-30T01:54:44.204Z,18.38
2017-05-30T01:57:13.153Z,18.77
2017-05-30T01:59:42.133Z,18.73
2017-05-30T02:02:11.065Z,18.67
2017-05-30T02:04:39.986Z,19.02
2017-05-30T02:07:08.950Z,18.22
2017-05-30T02:09:37.895Z,18.57
2017-05-30T02:12:06.821Z,18.58
2017-05-30T02:14:35.794Z,17.95
2017-05-30T02:17:04.736Z,18.77
2017-05-30T02:19:33.661Z,19.23
2017-05-30T02:22:02.619Z,18.63
2017-05-30T02:24:31.569Z,18.78
2017-05-30T02:27:00.514Z,18.12
2017-05-30T02:29:29.469Z,18.52
2017-05-30T02:31:58.419Z,18.75
2017-05-30T02:34:27.368Z,18.18
2017-05-30T02:36:56.326Z,19.83
2017-05-30T02:39:25.267Z,19.10
2017-05-30T02:41:54.208Z,18.90
2017-05-30T02:44:23.185Z,17.67
2017-05-30T02:46:52.137Z,18.78
2017-05-30T02:49:21.065Z,18.25
2017-05-30T02:51:50.019Z,19.13
2017-05-30T02:54:18.948Z,19.55
2017-05-30T02:56:47.869Z,19.58
2017-05-30T02:59:16.837Z,19.40
2017-05-30T03:01:45.774Z,19.83
2017-05-30T03:04:14.729Z,19.02
2017-05-30T03:06:44.072Z,20.63
2017-05-30T03:09:13.015Z,20.03
2017-05-30T03:11:41.961Z,18.58
2017-05-30T03:14:10.919Z,19.28
2017-05-30T03:16:39.861Z,18.87
2017-05-30T03:19:08.791Z,19.17
2017-05-30T03:21:37.765Z,18.92
2017-05-30T03:24:06.713Z,19.25
2017-05-30T03:26:35.647Z,19.20
2017-05-30T03:29:04.621Z,19.13
2017-05-30T03:31:33.565Z,19.87
2017-05-30T03:34:02.503Z,18.27
2017-05-30T03:36:32.526Z,18.62
2017-05-30T03:39:01.477Z,18.20
2017-05-30T03:41:30.399Z,19.85
2017-05-30T03:43:59.698Z,18.28
2017-05-30T03:46:28.623Z,22.53
2017-05-30T03:48:57.570Z,18.37
2017-05-30T03:51:26.557Z,17.70
2017-05-30T03:53:55.484Z,18.88
2017-05-30T03:56:24.428Z,17.85
2017-05-30T03:58:53.402Z,17.77
2017-05-30T04:01:22.353Z,19.33
2017-05-30T04:03:51.299Z,25.53
2017-05-30T04:06:20.272Z,23.08
2017-05-30T04:08:49.230Z,21.33
2017-05-30T04:11:18.158Z,23.75
2017-05-30T04:13:48.330Z,21.72
2017-05-30T04:16:17.274Z,20.55
2017-05-30T04:18:46.227Z,21.95
2017-05-30T04:21:15.192Z,18.60
2017-05-30T04:23:44.138Z,18.63
2017-05-30T04:26:13.086Z,20.32
2017-05-30T04:28:42.067Z,19.58
2017-05-30T04:31:10.998Z,22.55
2017-05-30T04:33:39.949Z,22.93
2017-05-30T04:36:08.912Z,25.68
2017-05-30T04:38:37.838Z,24.48
2017-05-30T04:41:06.796Z,26.05
2017-05-30T04:43:35.754Z,24.28
2017-05-30T04:46:04.705Z,24.43
2017-05-30T04:48:33.637Z,23.07
2017-05-30T04:51:02.598Z,23.90
2017-05-30T04:53:31.530Z,24.22
2017-05-30T04:56:00.457Z,22.88
2017-05-30T04:58:29.414Z,22.07
2017-05-30T05:00:58.342Z,25.92
2017-05-30T05:03:27.273Z,24.32
2017-05-30T05:05:56.238Z,24.22
2017-05-30T05:08:25.188Z,24.87
2017-05-30T05:10:54.144Z,23.47
2017-05-30T05:13:24.078Z,25.10
2017-05-30T05:15:53.003Z,29.97
2017-05-30T05:18:21.930Z,28.50
2017-05-30T05:20:50.890Z,27.12
2017-05-30T05:23:19.813Z,27.63
2017-05-30T05:25:48.769Z,25.95
2017-05-30T05:28:17.741Z,25.38
2017-05-30T05:30:46.688Z,26.58
2017-05-30T05:33:15.637Z,29.25
2017-05-30T05:35:44.618Z,31.25
2017-05-30T05:38:13.551Z,25.88
2017-05-30T05:40:42.504Z,28.68
2017-05-30T05:43:11.485Z,30.82
2017-05-30T05:45:40.419Z,28.33
2017-05-30T05:48:09.355Z,31.52
2017-05-30T05:50:38.342Z,30.42
2017-05-30T05:53:07.272Z,28.33
2017-05-30T05:55:36.203Z,29.18
2017-05-30T05:58:05.200Z,29.18
2017-05-30T06:00:34.131Z,35.18
2017-05-30T06:03:03.082Z,30.63
2017-05-30T06:05:32.057Z,30.37
2017-05-30T06:08:01.010Z,29.43
2017-05-30T06:10:30.109Z,29.98
2017-05-30T06:12:59.084Z,29.75
2017-05-30T06:15:28.015Z,29.88
2017-05-30T06:17:56.951Z,29.40
2017-05-30T06:20:25.910Z,31.17
2017-05-30T06:22:54.853Z,32.63
2017-05-30T06:25:23.800Z,35.67
2017-05-30T06:27:52.759Z,32.03
2017-05-30T06:30:21.707Z,34.73
2017-05-30T06:32:51.070Z,37.70
2017-05-30T06:35:20.026Z,40.30
2017-05-30T06:37:48.978Z,35.52
2017-05-30T06:40:17.928Z,38.52
2017-05-30T06:42:46.899Z,37.45
2017-05-30T06:45:15.893Z,40.32
2017-05-30T06:47:44.822Z,39.25
2017-05-30T06:50:13.792Z,41.23
2017-05-30T06:52:42.724Z,40.05
2017-05-30T06:55:11.682Z,39.18
2017-05-30T06:57:40.661Z,37.67
2017-05-30T07:00:09.660Z,37.25
2017-05-30T07:02:38.793Z,37.63
2017-05-30T07:05:07.850Z,39.22
2017-05-30T07:07:37.011Z,40.87
2017-05-30T07:10:06.030Z,35.22
2017-05-30T07:12:35.037Z,31.77
2017-05-30T07:15:04.029Z,41.08
2017-05-30T07:17:33.015Z,39.20
2017-05-30T07:20:01.984Z,39.08
2017-05-30T07:22:30.946Z,43.17
2017-05-30T07:24:59.883Z,39.87
2017-05-30T07:27:28.843Z,42.32
2017-05-30T07:29:57.791Z,39.20
2017-05-30T07:32:26.743Z,37.63
2017-05-30T07:34:55.717Z,38.02
2017-05-30T07:37:24.665Z,32.23
2017-05-30T07:39:53.601Z,29.35
2017-05-30T07:42:22.562Z,32.88
2017-05-30T07:44:51.497Z,41.27
2017-05-30T07:47:20.450Z,35.35
2017-05-30T07:49:49.439Z,33.70
2017-05-30T07:52:18.380Z,24.90
2017-05-30T07:54:47.330Z,23.23
2017-05-30T07:57:16.313Z,20.52
2017-05-30T07:59:45.271Z,18.12
2017-05-30T08:02:14.193Z,18.45
2017-05-30T08:04:43.154Z,17.40
2017-05-30T08:07:12.112Z,17.02
2017-05-30T08:09:41.060Z,20.62
2017-05-30T08:12:11.001Z,17.95
2017-05-30T08:14:39.955Z,18.48
2017-05-30T08:17:08.885Z,17.76
2017-05-30T08:19:37.887Z,20.42
2017-05-30T08:22:06.819Z,22.88
2017-05-30T08:24:35.745Z,20.76
2017-05-30T08:27:04.705Z,21.78
2017-05-30T08:29:33.654Z,20.64
2017-05-30T08:32:02.603Z,22.84
2017-05-30T08:34:31.597Z,21.80
2017-05-30T08:37:00.595Z,23.04
2017-05-30T08:39:29.523Z,21.08
2017-05-30T08:41:58.513Z,20.44
2017-05-30T08:44:27.437Z,23.66
2017-05-30T08:46:56.373Z,24.62
2017-05-30T08:49:25.713Z,23.46
2017-05-30T08:51:54.676Z,23.72
2017-05-30T08:54:23.607Z,25.82
2017-05-30T08:56:52.587Z,26.80
2017-05-30T08:59:21.522Z,29.04
2017-05-30T09:01:50.453Z,28.82
2017-05-30T09:04:19.409Z,32.74
2017-05-30T09:06:48.347Z,33.28
2017-05-30T09:09:17.282Z,31.62
2017-05-30T09:11:46.251Z,35.46
2017-05-30T09:14:15.202Z,30.90
2017-05-30T09:16:44.122Z,30.80
2017-05-30T09:19:13.108Z,33.48
2017-05-30T09:21:42.261Z,35.46
2017-05-30T09:24:11.200Z,32.58
2017-05-30T09:26:40.158Z,33.76
2017-05-30T09:29:09.083Z,33.10
2017-05-30T09:31:38.026Z,36.88
2017-05-30T09:34:07.005Z,35.70
2017-05-30T09:36:35.938Z,36.52
2017-05-30T09:39:04.893Z,32.50
2017-05-30T09:41:33.877Z,26.68
2017-05-30T09:44:02.844Z,29.18
2017-05-30T09:46:31.769Z,25.78
2017-05-30T09:49:00.749Z,23.90
2017-05-30T09:51:29.705Z,26.62
2017-05-30T09:53:58.645Z,25.64
2017-05-30T09:56:27.628Z,25.08
2017-05-30T09:58:56.559Z,25.76
2017-05-30T10:01:25.493Z,26.54
2017-05-30T10:03:54.460Z,25.34
2017-05-30T10:06:23.393Z,27.16
2017-05-30T10:08:52.342Z,28.32
2017-05-30T10:11:21.298Z,25.98
2017-05-30T10:13:50.239Z,25.02
2017-05-30T10:16:19.173Z,23.94
2017-05-30T10:18:48.152Z,22.34
2017-05-30T10:21:17.105Z,23.50
2017-05-30T10:23:46.051Z,24.68
2017-05-30T10:26:15.063Z,22.04
2017-05-30T10:28:44.012Z,21.12
2017-05-30T10:31:12.956Z,22.06
2017-05-30T10:33:41.929Z,16.86
2017-05-30T10:36:10.873Z,17.36
2017-05-30T10:38:39.804Z,15.92
2017-05-30T10:41:08.776Z,18.00
2017-05-30T10:43:37.710Z,15.64
2017-05-30T10:46:06.639Z,16.90
2017-05-30T10:48:35.616Z,14.92
2017-05-30T10:51:04.547Z,11.72
2017-05-30T10:53:33.497Z,12.32
2017-05-30T10:56:02.468Z,11.74
2017-05-30T10:58:31.416Z,11.32
2017-05-30T11:01:00.349Z,10.70
2017-05-30T11:03:29.308Z,10.74
2017-05-30T11:05:58.252Z,10.02
2017-05-30T11:08:27.183Z,10.02
2017-05-30T11:10:56.153Z,13.14
2017-05-30T11:13:25.081Z,14.34
2017-05-30T11:15:54.020Z,12.56
2017-05-30T11:18:22.978Z,12.84
2017-05-30T11:20:51.916Z,12.06
2017-05-30T11:23:20.846Z,11.80
2017-05-30T11:25:49.801Z,13.12
2017-05-30T11:28:18.726Z,12.78
2017-05-30T11:30:47.650Z,13.34
2017-05-30T11:33:16.613Z,13.82
2017-05-30T11:35:45.561Z,13.40
2017-05-30T11:38:14.512Z,13.12
2017-05-30T11:40:43.471Z,13.26
2017-05-30T11:43:12.403Z,12.90
2017-05-30T11:45:41.353Z,12.44
2017-05-30T11:48:10.302Z,10.84
2017-05-30T11:50:39.248Z,11.34
2017-05-30T11:53:08.177Z,11.02
2017-05-30T11:55:37.157Z,10.32
2017-05-30T11:58:06.078Z,8.90
2017-05-30T12:00:35.002Z,10.30
2017-05-30T12:03:03.980Z,10.30
2017-05-30T12:05:32.924Z,9.12
2017-05-30T12:08:01.877Z,9.38
2017-05-30T12:10:30.842Z,11.28
2017-05-30T12:12:59.792Z,10.16
2017-05-30T12:15:28.740Z,12.50
2017-05-30T12:17:57.705Z,13.47
2017-05-30T12:20:26.641Z,14.73
2017-05-30T12:22:55.593Z,14.66
2017-05-30T12:25:24.576Z,18.82
2017-05-30T12:27:53.537Z,15.60
2017-05-30T12:30:22.475Z,18.08
2017-05-30T12:32:51.489Z,22.02
2017-05-30T12:35:20.431Z,20.05
2017-05-30T12:37:49.421Z,20.10
2017-05-30T12:40:18.415Z,18.94
2017-05-30T12:42:47.351Z,19.35
2017-05-30T12:45:16.308Z,21.56
2017-05-30T12:47:45.261Z,21.72
2017-05-30T12:50:14.191Z,21.58
2017-05-30T12:52:43.125Z,22.44
2017-05-30T12:55:12.104Z,20.70
2017-05-30T12:57:41.033Z,20.46
2017-05-30T13:00:09.987Z,20.72
2017-05-30T13:02:38.980Z,21.22
2017-05-30T13:05:07.919Z,18.84
2017-05-30T13:07:36.876Z,20.33
2017-05-30T13:10:05.840Z,23.02
2017-05-30T13:12:34.820Z,26.88
2017-05-30T13:15:03.769Z,26.92
2017-05-30T13:17:32.738Z,25.15
2017-05-30T13:20:01.677Z,25.70
2017-05-30T13:22:30.623Z,27.00
2017-05-30T13:24:59.613Z,25.40
2017-05-30T13:27:28.577Z,22.85
2017-05-30T13:29:57.514Z,23.35
2017-05-30T13:32:26.496Z,22.98
2017-05-30T13:34:55.466Z,23.67
2017-05-30T13:37:24.402Z,26.10
2017-05-30T13:39:53.375Z,23.20
2017-05-30T13:42:22.311Z,20.78
2017-05-30T13:44:51.274Z,18.10
2017-05-30T13:47:20.265Z,15.38
2017-05-30T13:49:49.210Z,13.82
2017-05-30T13:52:18.142Z,13.38
2017-05-30T13:54:47.222Z,11.47
2017-05-30T13:57:16.265Z,11.83
2017-05-30T13:59:45.210Z,11.52
2017-05-30T14:02:14.192Z,10.22
2017-05-30T14:04:43.149Z,12.20
2017-05-30T14:07:12.086Z,11.98
2017-05-30T14:09:41.069Z,13.67
2017-05-30T14:12:10.004Z,14.82
2017-05-30T14:14:38.943Z,16.18
2017-05-30T14:17:07.901Z,14.35
2017-05-30T14:19:36.835Z,15.88
2017-05-30T14:22:05.797Z,15.32
2017-05-30T14:24:34.784Z,17.08
2017-05-30T14:27:03.740Z,19.05
2017-05-30T14:29:32.678Z,21.35
2017-05-30T14:32:01.724Z,22.35
2017-05-30T14:34:30.684Z,23.05
2017-05-30T14:36:59.609Z,22.18
2017-05-30T14:39:28.571Z,23.00
2017-05-30T14:41:57.527Z,22.17
2017-05-30T14:44:26.478Z,20.88
2017-05-30T14:46:55.443Z,22.98
2017-05-30T14:49:24.396Z,21.27
2017-05-30T14:51:53.356Z,24.27
2017-05-30T14:54:22.330Z,25.75
2017-05-30T14:56:51.290Z,26.22
2017-05-30T14:59:20.242Z,27.00
2017-05-30T15:01:49.210Z,26.23
2017-05-30T15:04:18.164Z,24.95
2017-05-30T15:06:47.092Z,25.18
2017-05-30T15:09:16.073Z,29.75
2017-05-30T15:11:45.021Z,30.70
2017-05-30T15:14:13.978Z,34.20
2017-05-30T15:16:42.940Z,35.37
2017-05-30T15:19:11.879Z,35.22
2017-05-30T15:21:40.811Z,37.07
2017-05-30T15:24:09.766Z,36.27
2017-05-30T15:26:38.693Z,36.37
2017-05-30T15:29:07.618Z,38.23
2017-05-30T15:31:36.597Z,39.58
2017-05-30T15:34:05.517Z,38.78
2017-05-30T15:36:34.474Z,38.48
2017-05-30T15:39:03.470Z,40.77
2017-05-30T15:41:32.417Z,40.42
2017-05-30T15:44:01.344Z,39.22
2017-05-30T15:46:30.415Z,38.15
2017-05-30T15:48:59.346Z,37.40
2017-05-30T15:51:28.275Z,36.02
2017-05-30T15:53:57.240Z,38.32
2017-05-30T15:56:26.178Z,37.72
2017-05-30T15:58:55.110Z,37.18
2017-05-30T16:01:24.079Z,34.75
2017-05-30T16:03:53.033Z,35.87
2017-05-30T16:06:21.981Z,33.02
2017-05-30T16:08:51.011Z,33.27
2017-05-30T16:11:19.966Z,32.07
2017-05-30T16:13:48.892Z,27.33
2017-05-30T16:16:17.896Z,27.00
2017-05-30T16:18:46.821Z,27.08
2017-05-30T16:21:15.758Z,27.75
2017-05-30T16:23:44.731Z,27.00
2017-05-30T16:26:13.701Z,25.27
2017-05-30T16:28:42.661Z,25.23
2017-05-30T16:31:11.817Z,24.37
2017-05-30T16:33:40.767Z,25.13
2017-05-30T16:36:09.696Z,22.35
2017-05-30T16:38:38.662Z,21.85
2017-05-30T16:41:07.616Z,20.72
2017-05-30T16:43:36.545Z,22.73
2017-05-30T16:46:05.506Z,19.73
2017-05-30T16:48:34.464Z,18.85
2017-05-30T16:51:03.418Z,16.58
2017-05-30T16:53:32.399Z,16.00
2017-05-30T16:56:01.325Z,15.73
2017-05-30T16:58:30.250Z,14.85
2017-05-30T17:00:59.231Z,14.95
2017-05-30T17:03:28.157Z,16.95
2017-05-30T17:05:57.116Z,17.12
2017-05-30T17:08:26.093Z,16.12
2017-05-30T17:10:55.048Z,15.77
2017-05-30T17:13:24.001Z,15.22
2017-05-30T17:15:52.954Z,13.08
2017-05-30T17:18:21.882Z,16.10
2017-05-30T17:20:50.809Z,14.82
2017-05-30T17:23:19.781Z,15.87
2017-05-30T17:25:48.709Z,14.13
2017-05-30T17:28:17.638Z,14.00
2017-05-30T17:30:46.632Z,13.93
2017-05-30T17:33:15.573Z,12.63
2017-05-30T17:35:44.529Z,13.78
2017-05-30T17:38:13.478Z,14.67
2017-05-30T17:40:42.478Z,12.80
2017-05-30T17:43:11.424Z,11.98
2017-05-30T17:45:40.397Z,11.97
2017-05-30T17:48:09.320Z,13.48
2017-05-30T17:50:38.252Z,11.62
2017-05-30T17:53:07.230Z,12.58
2017-05-30T17:55:36.158Z,10.65
2017-05-30T17:58:05.095Z,13.95
2017-05-30T18:00:34.076Z,11.62
2017-05-30T18:03:03.027Z,13.35
2017-05-30T18:05:31.983Z,10.28
2017-05-30T18:08:00.991Z,8.95
2017-05-30T18:10:29.959Z,10.27
2017-05-30T18:12:58.895Z,11.47
2017-05-30T18:15:27.855Z,10.33
2017-05-30T18:17:56.805Z,10.62
2017-05-30T18:20:25.743Z,11.53
2017-05-30T18:22:54.705Z,11.12
2017-05-30T18:25:23.631Z,9.50
2017-05-30T18:27:52.563Z,9.17
2017-05-30T18:30:21.519Z,10.03
2017-05-30T18:32:50.469Z,13.53
2017-05-30T18:35:19.394Z,9.80
2017-05-30T18:37:48.369Z,9.15
2017-05-30T18:40:17.323Z,12.35
2017-05-30T18:42:46.250Z,8.98
2017-05-30T18:45:15.214Z,10.07
2017-05-30T18:47:44.139Z,9.35
2017-05-30T18:50:13.092Z,9.25
2017-05-30T18:52:42.051Z,8.87
2017-05-30T18:55:10.994Z,9.08
2017-05-30T18:57:39.944Z,9.38
2017-05-30T19:00:08.930Z,9.70
2017-05-30T19:02:37.893Z,8.28
2017-05-30T19:05:06.829Z,8.33
2017-05-30T19:07:35.805Z,7.98
2017-05-30T19:10:04.731Z,9.25
2017-05-30T19:12:33.682Z,9.00
2017-05-30T19:15:02.645Z,8.92
2017-05-30T19:17:31.570Z,9.13
2017-05-30T19:20:00.512Z,8.20
2017-05-30T19:22:29.462Z,7.58
2017-05-30T19:24:58.395Z,8.62
2017-05-30T19:27:27.336Z,10.42
2017-05-30T19:29:56.314Z,8.58
2017-05-30T19:32:25.238Z,9.02
2017-05-30T19:34:54.167Z,9.57
2017-05-30T19:37:23.142Z,9.93
2017-05-30T19:39:52.096Z,10.77
2017-05-30T19:42:21.041Z,11.22
2017-05-30T19:44:50.014Z,11.23
2017-05-30T19:47:18.960Z,12.30
2017-05-30T19:49:47.898Z,11.85
2017-05-30T19:52:16.877Z,12.30
2017-05-30T19:54:45.821Z,13.48
2017-05-30T19:57:14.748Z,12.85
2017-05-30T19:59:43.725Z,13.73
2017-05-30T20:02:12.659Z,14.47
2017-05-30T20:04:41.583Z,15.77
2017-05-30T20:07:10.546Z,14.63
2017-05-30T20:09:39.497Z,14.83
2017-05-30T20:12:08.421Z,15.23
2017-05-30T20:14:37.380Z,15.90
2017-05-30T20:17:06.333Z,16.25
2017-05-30T20:19:35.284Z,16.00
2017-05-30T20:22:04.246Z,15.87
2017-05-30T20:24:33.196Z,16.20
2017-05-30T20:27:02.123Z,17.82
2017-05-30T20:29:31.100Z,16.35
2017-05-30T20:32:00.057Z,14.65
2017-05-30T20:34:29.005Z,16.20
2017-05-30T20:36:57.957Z,18.22
2017-05-30T20:39:26.886Z,17.10
2017-05-30T20:41:55.822Z,16.28
2017-05-30T20:44:24.796Z,16.42
2017-05-30T20:46:53.731Z,18.38
2017-05-30T20:49:22.674Z,19.32
2017-05-30T20:51:51.647Z,19.42
2017-05-30T20:54:20.596Z,20.35
2017-05-30T20:56:49.532Z,19.55
2017-05-30T20:59:18.491Z,18.72
2017-05-30T21:01:47.442Z,19.22
2017-05-30T21:04:16.374Z,19.15
2017-05-30T21:06:45.357Z,19.10
2017-05-30T21:09:14.289Z,21.88
2017-05-30T21:11:43.237Z,20.45
2017-05-30T21:14:12.281Z,25.38
2017-05-30T21:16:41.213Z,34.13
2017-05-30T21:19:10.161Z,21.42
2017-05-30T21:21:39.142Z,21.92
2017-05-30T21:24:08.081Z,20.17
2017-05-30T21:26:37.009Z,20.00
2017-05-30T21:29:05.983Z,20.52
2017-05-30T21:31:34.909Z,21.90
2017-05-30T21:34:03.858Z,22.20
2017-05-30T21:36:32.841Z,20.93
2017-05-30T21:39:01.768Z,20.85
2017-05-30T21:41:30.724Z,21.45
2017-05-30T21:43:59.696Z,22.25
2017-05-30T21:46:28.645Z,21.18
2017-05-30T21:48:57.603Z,23.40
2017-05-30T21:51:26.590Z,22.73
2017-05-30T21:53:55.541Z,22.73
2017-05-30T21:56:24.491Z,21.80
2017-05-30T21:58:53.453Z,23.40
2017-05-30T22:01:22.381Z,21.50
2017-05-30T22:03:51.308Z,21.45
2017-05-30T22:06:20.289Z,22.90
2017-05-30T22:08:49.218Z,23.82
2017-05-30T22:11:18.145Z,23.53
2017-05-30T22:13:47.106Z,21.75
2017-05-30T22:16:16.056Z,23.05
2017-05-30T22:18:45.003Z,20.80
2017-05-30T22:21:13.953Z,21.73
2017-05-30T22:23:42.899Z,19.92
2017-05-30T22:26:11.841Z,20.55
2017-05-30T22:28:40.815Z,19.80
2017-05-30T22:31:09.744Z,20.67
2017-05-30T22:33:38.674Z,18.27
2017-05-30T22:36:07.715Z,19.30
2017-05-30T22:38:36.634Z,18.63
2017-05-30T22:41:05.567Z,19.73
2017-05-30T22:43:34.520Z,18.85
2017-05-30T22:46:03.447Z,18.90
2017-05-30T22:48:32.375Z,16.98
2017-05-30T22:51:01.348Z,18.38
2017-05-30T22:53:30.273Z,16.23
2017-05-30T22:55:59.194Z,17.98
2017-05-30T22:58:28.173Z,17.08
2017-05-30T23:00:57.108Z,15.85
2017-05-30T23:03:26.060Z,16.38
2017-05-30T23:05:55.041Z,15.70
2017-05-30T23:08:23.994Z,16.25
2017-05-30T23:10:52.953Z,15.63
2017-05-30T23:13:21.908Z,14.50
2017-05-30T23:15:50.835Z,15.57
2017-05-30T23:18:19.777Z,15.97
2017-05-30T23:20:48.744Z,15.13
2017-05-30T23:23:17.690Z,15.90
2017-05-30T23:25:46.626Z,16.07
2017-05-30T23:28:15.583Z,16.27
2017-05-30T23:30:44.514Z,15.98
2017-05-30T23:33:14.415Z,15.55
2017-05-30T23:35:43.385Z,15.88
2017-05-30T23:38:12.335Z,16.15
2017-05-30T23:40:41.281Z,18.38
2017-05-30T23:43:10.316Z,16.25
2017-05-30T23:45:39.301Z,16.18
2017-05-30T23:48:08.286Z,18.55
2017-05-30T23:50:37.328Z,19.66
2017-05-30T23:53:06.316Z,19.68
2017-05-30T23:55:35.305Z,20.52
2017-05-30T23:58:04.341Z,21.10
